sensor_id;sensor_type;location;lat;lon;timestamp;P1;durP1;ratioP1;P2;durP2;ratioP2
8895;SDS011;4484;48.928;10.066;2023-12-22T00:02:17;1.20;;;0.43;;
8895;SDS011;4484;48.928;10.066;2023-12-22T00:04:44;0.87;;;0.20;;
8895;SDS011;4484;48.928;10.066;2023-12-22T00:07:11;0.23;;;0.23;;
8895;SDS011;4484;48.928;10.066;2023-12-22T00:09:38;0.87;;;0.27;;
8895;SDS011;4484;48.928;10.066;2023-12-22T00:12:05;0.43;;;0.20;;
8895;SDS011;4484;48.928;10.066;2023-12-22T00:14:32;0.60;;;0.30;;
8895;SDS011;4484;48.928;10.066;2023-12-22T00:16:59;0.63;;;0.20;;
8895;SDS011;4484;48.928;10.066;2023-12-22T00:19:26;0.20;;;0.20;;
8895;SDS011;4484;48.928;10.066;2023-12-22T00:21:53;0.20;;;0.20;;
8895;SDS011;4484;48.928;10.066;2023-12-22T00:24:20;2.43;;;0.40;;
8895;SDS011;4484;48.928;10.066;2023-12-22T00:26:46;0.37;;;0.23;;
8895;SDS011;4484;48.928;10.066;2023-12-22T00:29:13;2.67;;;0.37;;
8895;SDS011;4484;48.928;10.066;2023-12-22T00:31:42;2.87;;;0.30;;
8895;SDS011;4484;48.928;10.066;2023-12-22T00:34:09;0.40;;;0.20;;
8895;SDS011;4484;48.928;10.066;2023-12-22T00:40:49;0.73;;;0.33;;
8895;SDS011;4484;48.928;10.066;2023-12-22T00:43:16;1.80;;;0.20;;
8895;SDS011;4484;48.928;10.066;2023-12-22T00:45:43;0.30;;;0.23;;
8895;SDS011;4484;48.928;10.066;2023-12-22T00:48:09;1.40;;;0.40;;
8895;SDS011;4484;48.928;10.066;2023-12-22T00:50:37;0.67;;;0.20;;
8895;SDS011;4484;48.928;10.066;2023-12-22T00:53:03;0.30;;;0.30;;
8895;SDS011;4484;48.928;10.066;2023-12-22T00:55:30;0.80;;;0.50;;
8895;SDS011;4484;48.928;10.066;2023-12-22T00:57:57;0.23;;;0.20;;
8895;SDS011;4484;48.928;10.066;2023-12-22T01:00:24;0.10;;;0.10;;
8895;SDS011;4484;48.928;10.066;2023-12-22T01:02:51;0.20;;;0.20;;
8895;SDS011;4484;48.928;10.066;2023-12-22T01:05:18;2.63;;;0.50;;
8895;SDS011;4484;48.928;10.066;2023-12-22T01:07:45;1.90;;;0.27;;
8895;SDS011;4484;48.928;10.066;2023-12-22T01:10:12;2.20;;;0.30;;
8895;SDS011;4484;48.928;10.066;2023-12-22T01:12:39;1.17;;;0.30;;
8895;SDS011;4484;48.928;10.066;2023-12-22T01:15:06;2.00;;;0.20;;
8895;SDS011;4484;48.928;10.066;2023-12-22T01:17:33;2.23;;;0.27;;
8895;SDS011;4484;48.928;10.066;2023-12-22T01:20:00;2.30;;;0.20;;
8895;SDS011;4484;48.928;10.066;2023-12-22T01:22:27;0.67;;;0.27;;
8895;SDS011;4484;48.928;10.066;2023-12-22T01:24:54;0.60;;;0.20;;
8895;SDS011;4484;48.928;10.066;2023-12-22T01:27:20;0.10;;;0.10;;
8895;SDS011;4484;48.928;10.066;2023-12-22T01:29:47;0.23;;;0.20;;
8895;SDS011;4484;48.928;10.066;2023-12-22T01:32:14;3.10;;;0.20;;
8895;SDS011;4484;48.928;10.066;2023-12-22T01:34:41;0.20;;;0.13;;
8895;SDS011;4484;48.928;10.066;2023-12-22T01:37:09;0.37;;;0.20;;
8895;SDS011;4484;48.928;10.066;2023-12-22T01:39:36;0.10;;;0.10;;
8895;SDS011;4484;48.928;10.066;2023-12-22T01:42:03;1.30;;;0.20;;
8895;SDS011;4484;48.928;10.066;2023-12-22T01:44:30;0.30;;;0.20;;
8895;SDS011;4484;48.928;10.066;2023-12-22T01:46:57;0.20;;;0.20;;
8895;SDS011;4484;48.928;10.066;2023-12-22T01:49:24;0.60;;;0.20;;
8895;SDS011;4484;48.928;10.066;2023-12-22T01:51:52;0.10;;;0.10;;
8895;SDS011;4484;48.928;10.066;2023-12-22T01:54:19;1.20;;;0.40;;
8895;SDS011;4484;48.928;10.066;2023-12-22T01:56:46;0.40;;;0.40;;
8895;SDS011;4484;48.928;10.066;2023-12-22T01:59:13;0.20;;;0.20;;
8895;SDS011;4484;48.928;10.066;2023-12-22T02:01:40;0.30;;;0.30;;
8895;SDS011;4484;48.928;10.066;2023-12-22T02:04:10;0.30;;;0.30;;
8895;SDS011;4484;48.928;10.066;2023-12-22T02:06:37;0.90;;;0.43;;
8895;SDS011;4484;48.928;10.066;2023-12-22T02:09:04;1.87;;;0.37;;
8895;SDS011;4484;48.928;10.066;2023-12-22T02:11:31;0.47;;;0.47;;
8895;SDS011;4484;48.928;10.066;2023-12-22T02:13:58;0.90;;;0.50;;
8895;SDS011;4484;48.928;10.066;2023-12-22T02:16:39;0.40;;;0.40;;
8895;SDS011;4484;48.928;10.066;2023-12-22T02:19:20;1.07;;;0.90;;
8895;SDS011;4484;48.928;10.066;2023-12-22T02:22:06;0.83;;;0.70;;
8895;SDS011;4484;48.928;10.066;2023-12-22T02:24:35;1.57;;;0.90;;
8895;SDS011;4484;48.928;10.066;2023-12-22T02:29:53;0.80;;;0.80;;
8895;SDS011;4484;48.928;10.066;2023-12-22T02:32:42;1.90;;;0.60;;
8895;SDS011;4484;48.928;10.066;2023-12-22T02:35:11;2.13;;;0.80;;
8895;SDS011;4484;48.928;10.066;2023-12-22T02:37:43;0.60;;;0.50;;
8895;SDS011;4484;48.928;10.066;2023-12-22T02:40:14;1.60;;;0.63;;
8895;SDS011;4484;48.928;10.066;2023-12-22T02:42:41;2.17;;;0.70;;
8895;SDS011;4484;48.928;10.066;2023-12-22T02:45:15;1.53;;;0.60;;
8895;SDS011;4484;48.928;10.066;2023-12-22T02:47:43;3.03;;;0.60;;
8895;SDS011;4484;48.928;10.066;2023-12-22T02:50:11;2.57;;;0.80;;
8895;SDS011;4484;48.928;10.066;2023-12-22T02:52:40;3.53;;;0.63;;
8895;SDS011;4484;48.928;10.066;2023-12-22T02:55:07;1.57;;;0.60;;
8895;SDS011;4484;48.928;10.066;2023-12-22T02:57:34;1.23;;;0.80;;
8895;SDS011;4484;48.928;10.066;2023-12-22T03:00:01;1.73;;;0.90;;
8895;SDS011;4484;48.928;10.066;2023-12-22T03:02:28;3.30;;;0.80;;
8895;SDS011;4484;48.928;10.066;2023-12-22T03:04:55;2.00;;;0.83;;
8895;SDS011;4484;48.928;10.066;2023-12-22T03:07:22;2.23;;;0.83;;
8895;SDS011;4484;48.928;10.066;2023-12-22T03:09:49;3.57;;;1.03;;
8895;SDS011;4484;48.928;10.066;2023-12-22T03:12:16;3.13;;;0.90;;
8895;SDS011;4484;48.928;10.066;2023-12-22T03:14:43;2.77;;;1.07;;
8895;SDS011;4484;48.928;10.066;2023-12-22T03:17:09;3.40;;;1.20;;
8895;SDS011;4484;48.928;10.066;2023-12-22T03:19:37;2.77;;;1.20;;
8895;SDS011;4484;48.928;10.066;2023-12-22T03:22:05;7.57;;;1.70;;
8895;SDS011;4484;48.928;10.066;2023-12-22T03:24:32;7.90;;;1.47;;
8895;SDS011;4484;48.928;10.066;2023-12-22T03:26:59;8.23;;;1.43;;
8895;SDS011;4484;48.928;10.066;2023-12-22T03:29:26;8.47;;;1.10;;
8895;SDS011;4484;48.928;10.066;2023-12-22T03:31:53;7.20;;;1.30;;
8895;SDS011;4484;48.928;10.066;2023-12-22T03:34:20;5.37;;;1.07;;
8895;SDS011;4484;48.928;10.066;2023-12-22T03:36:47;4.83;;;1.00;;
8895;SDS011;4484;48.928;10.066;2023-12-22T03:39:15;7.13;;;1.13;;
8895;SDS011;4484;48.928;10.066;2023-12-22T03:41:42;6.03;;;1.13;;
8895;SDS011;4484;48.928;10.066;2023-12-22T03:44:09;6.17;;;1.17;;
8895;SDS011;4484;48.928;10.066;2023-12-22T03:46:36;4.90;;;1.10;;
8895;SDS011;4484;48.928;10.066;2023-12-22T03:49:03;4.27;;;0.80;;
8895;SDS011;4484;48.928;10.066;2023-12-22T03:51:30;4.53;;;1.10;;
8895;SDS011;4484;48.928;10.066;2023-12-22T03:53:57;5.63;;;1.33;;
8895;SDS011;4484;48.928;10.066;2023-12-22T03:56:24;2.77;;;0.83;;
8895;SDS011;4484;48.928;10.066;2023-12-22T03:58:51;5.33;;;1.23;;
8895;SDS011;4484;48.928;10.066;2023-12-22T04:01:18;2.70;;;0.90;;
8895;SDS011;4484;48.928;10.066;2023-12-22T04:03:45;3.93;;;0.90;;
8895;SDS011;4484;48.928;10.066;2023-12-22T04:06:11;3.33;;;0.87;;
8895;SDS011;4484;48.928;10.066;2023-12-22T04:08:39;5.43;;;0.87;;
8895;SDS011;4484;48.928;10.066;2023-12-22T04:11:06;2.87;;;0.83;;
8895;SDS011;4484;48.928;10.066;2023-12-22T04:13:32;3.40;;;0.90;;
8895;SDS011;4484;48.928;10.066;2023-12-22T04:16:00;2.67;;;0.67;;
8895;SDS011;4484;48.928;10.066;2023-12-22T04:18:28;0.70;;;0.40;;
8895;SDS011;4484;48.928;10.066;2023-12-22T04:20:55;0.40;;;0.30;;
8895;SDS011;4484;48.928;10.066;2023-12-22T04:23:21;1.50;;;0.37;;
8895;SDS011;4484;48.928;10.066;2023-12-22T04:25:48;1.60;;;0.37;;
8895;SDS011;4484;48.928;10.066;2023-12-22T04:28:15;0.90;;;0.30;;
8895;SDS011;4484;48.928;10.066;2023-12-22T04:30:42;0.37;;;0.23;;
8895;SDS011;4484;48.928;10.066;2023-12-22T04:33:09;1.03;;;0.40;;
8895;SDS011;4484;48.928;10.066;2023-12-22T04:35:36;2.27;;;0.60;;
8895;SDS011;4484;48.928;10.066;2023-12-22T04:38:03;1.20;;;0.50;;
8895;SDS011;4484;48.928;10.066;2023-12-22T04:40:30;1.27;;;0.57;;
8895;SDS011;4484;48.928;10.066;2023-12-22T04:42:57;0.30;;;0.23;;
8895;SDS011;4484;48.928;10.066;2023-12-22T04:45:24;0.93;;;0.33;;
8895;SDS011;4484;48.928;10.066;2023-12-22T04:47:50;2.67;;;0.40;;
8895;SDS011;4484;48.928;10.066;2023-12-22T04:50:18;0.53;;;0.30;;
8895;SDS011;4484;48.928;10.066;2023-12-22T04:52:45;2.33;;;0.70;;
8895;SDS011;4484;48.928;10.066;2023-12-22T04:55:12;3.97;;;0.63;;
8895;SDS011;4484;48.928;10.066;2023-12-22T04:57:39;1.83;;;0.90;;
8895;SDS011;4484;48.928;10.066;2023-12-22T05:00:06;2.17;;;0.90;;
8895;SDS011;4484;48.928;10.066;2023-12-22T05:02:33;2.50;;;0.80;;
8895;SDS011;4484;48.928;10.066;2023-12-22T05:05:00;3.07;;;0.70;;
8895;SDS011;4484;48.928;10.066;2023-12-22T05:07:29;4.30;;;1.13;;
8895;SDS011;4484;48.928;10.066;2023-12-22T05:09:56;7.63;;;1.27;;
8895;SDS011;4484;48.928;10.066;2023-12-22T05:12:23;3.40;;;0.90;;
8895;SDS011;4484;48.928;10.066;2023-12-22T05:14:50;4.07;;;1.03;;
8895;SDS011;4484;48.928;10.066;2023-12-22T05:17:17;7.97;;;0.97;;
8895;SDS011;4484;48.928;10.066;2023-12-22T05:19:43;6.27;;;0.93;;
8895;SDS011;4484;48.928;10.066;2023-12-22T05:22:10;5.00;;;1.40;;
8895;SDS011;4484;48.928;10.066;2023-12-22T05:24:37;4.93;;;1.03;;
8895;SDS011;4484;48.928;10.066;2023-12-22T05:27:04;7.30;;;1.00;;
8895;SDS011;4484;48.928;10.066;2023-12-22T05:29:31;7.43;;;1.23;;
8895;SDS011;4484;48.928;10.066;2023-12-22T05:31:58;7.77;;;1.43;;
8895;SDS011;4484;48.928;10.066;2023-12-22T05:34:26;7.37;;;1.40;;
8895;SDS011;4484;48.928;10.066;2023-12-22T05:36:53;3.63;;;1.10;;
8895;SDS011;4484;48.928;10.066;2023-12-22T05:39:20;7.23;;;1.00;;
8895;SDS011;4484;48.928;10.066;2023-12-22T05:41:47;3.83;;;1.30;;
8895;SDS011;4484;48.928;10.066;2023-12-22T05:44:13;5.40;;;1.60;;
8895;SDS011;4484;48.928;10.066;2023-12-22T05:46:40;6.80;;;1.13;;
8895;SDS011;4484;48.928;10.066;2023-12-22T05:49:07;5.93;;;1.37;;
8895;SDS011;4484;48.928;10.066;2023-12-22T05:51:38;7.17;;;1.50;;
8895;SDS011;4484;48.928;10.066;2023-12-22T05:54:06;5.60;;;1.47;;
8895;SDS011;4484;48.928;10.066;2023-12-22T05:56:34;5.43;;;1.03;;
8895;SDS011;4484;48.928;10.066;2023-12-22T05:59:01;2.33;;;0.97;;
8895;SDS011;4484;48.928;10.066;2023-12-22T06:01:29;6.70;;;1.20;;
8895;SDS011;4484;48.928;10.066;2023-12-22T06:03:56;3.70;;;1.10;;
8895;SDS011;4484;48.928;10.066;2023-12-22T06:06:23;6.47;;;1.00;;
8895;SDS011;4484;48.928;10.066;2023-12-22T06:08:50;7.77;;;1.40;;
8895;SDS011;4484;48.928;10.066;2023-12-22T06:11:17;4.97;;;1.20;;
8895;SDS011;4484;48.928;10.066;2023-12-22T06:13:44;5.80;;;1.37;;
8895;SDS011;4484;48.928;10.066;2023-12-22T06:16:14;7.50;;;1.30;;
8895;SDS011;4484;48.928;10.066;2023-12-22T06:18:41;6.57;;;0.93;;
8895;SDS011;4484;48.928;10.066;2023-12-22T06:21:09;2.27;;;0.80;;
8895;SDS011;4484;48.928;10.066;2023-12-22T06:23:36;4.27;;;1.13;;
8895;SDS011;4484;48.928;10.066;2023-12-22T06:26:12;2.97;;;0.90;;
8895;SDS011;4484;48.928;10.066;2023-12-22T06:28:39;2.23;;;0.83;;
8895;SDS011;4484;48.928;10.066;2023-12-22T06:31:07;4.77;;;1.20;;
8895;SDS011;4484;48.928;10.066;2023-12-22T06:33:42;3.37;;;1.37;;
8895;SDS011;4484;48.928;10.066;2023-12-22T06:36:17;3.50;;;0.87;;
8895;SDS011;4484;48.928;10.066;2023-12-22T06:38:45;1.10;;;0.60;;
8895;SDS011;4484;48.928;10.066;2023-12-22T06:43:54;2.93;;;0.97;;
8895;SDS011;4484;48.928;10.066;2023-12-22T06:46:22;2.87;;;1.30;;
8895;SDS011;4484;48.928;10.066;2023-12-22T06:48:54;4.23;;;0.60;;
8895;SDS011;4484;48.928;10.066;2023-12-22T06:51:26;2.37;;;0.77;;
8895;SDS011;4484;48.928;10.066;2023-12-22T06:53:54;5.10;;;1.63;;
8895;SDS011;4484;48.928;10.066;2023-12-22T06:56:22;4.43;;;1.17;;
8895;SDS011;4484;48.928;10.066;2023-12-22T06:58:51;3.00;;;0.83;;
8895;SDS011;4484;48.928;10.066;2023-12-22T07:01:25;6.23;;;1.10;;
8895;SDS011;4484;48.928;10.066;2023-12-22T07:03:52;4.10;;;0.80;;
8895;SDS011;4484;48.928;10.066;2023-12-22T07:06:20;7.53;;;1.70;;
8895;SDS011;4484;48.928;10.066;2023-12-22T07:08:57;3.20;;;0.90;;
8895;SDS011;4484;48.928;10.066;2023-12-22T07:11:24;7.50;;;1.00;;
8895;SDS011;4484;48.928;10.066;2023-12-22T07:14:00;4.93;;;0.90;;
8895;SDS011;4484;48.928;10.066;2023-12-22T07:16:27;5.87;;;1.40;;
8895;SDS011;4484;48.928;10.066;2023-12-22T07:18:54;3.70;;;1.53;;
8895;SDS011;4484;48.928;10.066;2023-12-22T07:21:21;5.93;;;1.13;;
8895;SDS011;4484;48.928;10.066;2023-12-22T07:23:48;8.13;;;2.73;;
8895;SDS011;4484;48.928;10.066;2023-12-22T07:26:14;12.83;;;2.03;;
8895;SDS011;4484;48.928;10.066;2023-12-22T07:28:45;7.97;;;1.93;;
8895;SDS011;4484;48.928;10.066;2023-12-22T07:31:14;6.53;;;1.53;;
8895;SDS011;4484;48.928;10.066;2023-12-22T07:33:41;8.53;;;1.63;;
8895;SDS011;4484;48.928;10.066;2023-12-22T07:36:08;5.90;;;1.70;;
8895;SDS011;4484;48.928;10.066;2023-12-22T07:38:35;5.37;;;1.50;;
8895;SDS011;4484;48.928;10.066;2023-12-22T07:41:03;9.80;;;1.77;;
8895;SDS011;4484;48.928;10.066;2023-12-22T07:43:31;10.10;;;2.00;;
8895;SDS011;4484;48.928;10.066;2023-12-22T07:45:59;11.70;;;3.10;;
8895;SDS011;4484;48.928;10.066;2023-12-22T07:48:26;9.87;;;2.53;;
8895;SDS011;4484;48.928;10.066;2023-12-22T07:50:53;7.43;;;2.10;;
8895;SDS011;4484;48.928;10.066;2023-12-22T07:53:20;9.00;;;1.80;;
8895;SDS011;4484;48.928;10.066;2023-12-22T07:55:47;15.17;;;1.87;;
8895;SDS011;4484;48.928;10.066;2023-12-22T07:58:14;9.37;;;2.30;;
8895;SDS011;4484;48.928;10.066;2023-12-22T08:00:41;11.13;;;1.70;;
8895;SDS011;4484;48.928;10.066;2023-12-22T08:03:08;5.93;;;1.33;;
8895;SDS011;4484;48.928;10.066;2023-12-22T08:05:36;6.70;;;1.40;;
8895;SDS011;4484;48.928;10.066;2023-12-22T08:08:03;8.13;;;2.17;;
8895;SDS011;4484;48.928;10.066;2023-12-22T08:10:30;8.40;;;2.20;;
8895;SDS011;4484;48.928;10.066;2023-12-22T08:12:57;10.57;;;1.63;;
8895;SDS011;4484;48.928;10.066;2023-12-22T08:15:24;9.73;;;1.80;;
8895;SDS011;4484;48.928;10.066;2023-12-22T08:18:01;6.37;;;1.50;;
8895;SDS011;4484;48.928;10.066;2023-12-22T08:20:29;8.77;;;1.43;;
8895;SDS011;4484;48.928;10.066;2023-12-22T08:23:02;6.83;;;1.37;;
8895;SDS011;4484;48.928;10.066;2023-12-22T08:25:35;7.60;;;1.90;;
8895;SDS011;4484;48.928;10.066;2023-12-22T08:28:02;6.17;;;1.60;;
8895;SDS011;4484;48.928;10.066;2023-12-22T08:30:29;6.20;;;1.13;;
8895;SDS011;4484;48.928;10.066;2023-12-22T08:32:56;6.00;;;1.70;;
8895;SDS011;4484;48.928;10.066;2023-12-22T08:35:23;8.40;;;2.00;;
8895;SDS011;4484;48.928;10.066;2023-12-22T08:37:50;7.13;;;1.80;;
8895;SDS011;4484;48.928;10.066;2023-12-22T08:40:18;5.80;;;1.30;;
8895;SDS011;4484;48.928;10.066;2023-12-22T08:42:52;11.20;;;1.90;;
8895;SDS011;4484;48.928;10.066;2023-12-22T08:45:21;8.97;;;1.60;;
8895;SDS011;4484;48.928;10.066;2023-12-22T08:47:48;8.27;;;1.70;;
8895;SDS011;4484;48.928;10.066;2023-12-22T08:50:15;5.93;;;1.80;;
8895;SDS011;4484;48.928;10.066;2023-12-22T08:52:43;9.20;;;1.53;;
8895;SDS011;4484;48.928;10.066;2023-12-22T08:55:10;7.53;;;2.33;;
8895;SDS011;4484;48.928;10.066;2023-12-22T08:57:37;7.73;;;1.17;;
8895;SDS011;4484;48.928;10.066;2023-12-22T09:00:07;7.23;;;1.63;;
8895;SDS011;4484;48.928;10.066;2023-12-22T09:02:35;7.80;;;1.50;;
8895;SDS011;4484;48.928;10.066;2023-12-22T09:05:02;6.73;;;1.53;;
8895;SDS011;4484;48.928;10.066;2023-12-22T09:07:29;7.83;;;1.60;;
8895;SDS011;4484;48.928;10.066;2023-12-22T09:09:56;3.50;;;0.97;;
8895;SDS011;4484;48.928;10.066;2023-12-22T09:12:23;2.23;;;0.83;;
8895;SDS011;4484;48.928;10.066;2023-12-22T09:14:49;4.63;;;0.80;;
8895;SDS011;4484;48.928;10.066;2023-12-22T09:17:16;2.93;;;0.70;;
8895;SDS011;4484;48.928;10.066;2023-12-22T09:19:43;0.90;;;0.60;;
8895;SDS011;4484;48.928;10.066;2023-12-22T09:22:10;3.07;;;0.60;;
8895;SDS011;4484;48.928;10.066;2023-12-22T09:24:37;1.17;;;0.43;;
8895;SDS011;4484;48.928;10.066;2023-12-22T09:27:04;3.03;;;0.80;;
8895;SDS011;4484;48.928;10.066;2023-12-22T09:29:31;0.60;;;0.40;;
8895;SDS011;4484;48.928;10.066;2023-12-22T09:32:00;3.07;;;0.60;;
8895;SDS011;4484;48.928;10.066;2023-12-22T09:34:27;3.70;;;0.80;;
8895;SDS011;4484;48.928;10.066;2023-12-22T09:36:54;2.10;;;0.90;;
8895;SDS011;4484;48.928;10.066;2023-12-22T09:39:22;2.80;;;0.90;;
8895;SDS011;4484;48.928;10.066;2023-12-22T09:41:49;3.83;;;0.77;;
8895;SDS011;4484;48.928;10.066;2023-12-22T09:44:20;4.33;;;1.10;;
8895;SDS011;4484;48.928;10.066;2023-12-22T09:46:47;4.73;;;1.10;;
8895;SDS011;4484;48.928;10.066;2023-12-22T09:49:19;5.40;;;1.00;;
8895;SDS011;4484;48.928;10.066;2023-12-22T09:51:49;7.57;;;1.27;;
8895;SDS011;4484;48.928;10.066;2023-12-22T09:54:16;8.20;;;1.30;;
8895;SDS011;4484;48.928;10.066;2023-12-22T09:56:45;5.17;;;1.40;;
8895;SDS011;4484;48.928;10.066;2023-12-22T09:59:13;6.33;;;2.00;;
8895;SDS011;4484;48.928;10.066;2023-12-22T10:01:44;5.37;;;1.40;;
8895;SDS011;4484;48.928;10.066;2023-12-22T10:04:12;10.07;;;1.53;;
8895;SDS011;4484;48.928;10.066;2023-12-22T10:06:41;5.77;;;1.40;;
8895;SDS011;4484;48.928;10.066;2023-12-22T10:09:08;9.57;;;1.70;;
8895;SDS011;4484;48.928;10.066;2023-12-22T10:11:37;7.50;;;1.97;;
8895;SDS011;4484;48.928;10.066;2023-12-22T10:14:05;6.27;;;1.67;;
8895;SDS011;4484;48.928;10.066;2023-12-22T10:16:34;8.10;;;2.07;;
8895;SDS011;4484;48.928;10.066;2023-12-22T10:19:03;10.83;;;2.83;;
8895;SDS011;4484;48.928;10.066;2023-12-22T10:21:30;12.13;;;2.50;;
8895;SDS011;4484;48.928;10.066;2023-12-22T10:24:00;10.60;;;2.20;;
8895;SDS011;4484;48.928;10.066;2023-12-22T10:26:27;14.30;;;2.40;;
8895;SDS011;4484;48.928;10.066;2023-12-22T10:28:54;9.23;;;2.33;;
8895;SDS011;4484;48.928;10.066;2023-12-22T10:31:21;13.93;;;2.40;;
8895;SDS011;4484;48.928;10.066;2023-12-22T10:33:49;11.43;;;2.97;;
8895;SDS011;4484;48.928;10.066;2023-12-22T10:36:15;12.43;;;3.10;;
8895;SDS011;4484;48.928;10.066;2023-12-22T10:38:43;9.73;;;2.27;;
8895;SDS011;4484;48.928;10.066;2023-12-22T10:41:11;12.17;;;2.73;;
8895;SDS011;4484;48.928;10.066;2023-12-22T10:43:38;17.47;;;2.73;;
8895;SDS011;4484;48.928;10.066;2023-12-22T10:46:07;15.40;;;3.10;;
8895;SDS011;4484;48.928;10.066;2023-12-22T10:48:34;13.17;;;2.57;;
8895;SDS011;4484;48.928;10.066;2023-12-22T10:51:01;12.53;;;2.70;;
8895;SDS011;4484;48.928;10.066;2023-12-22T10:53:28;16.47;;;2.63;;
8895;SDS011;4484;48.928;10.066;2023-12-22T10:55:55;14.83;;;2.67;;
8895;SDS011;4484;48.928;10.066;2023-12-22T10:58:23;12.07;;;3.20;;
8895;SDS011;4484;48.928;10.066;2023-12-22T11:00:50;15.27;;;2.67;;
8895;SDS011;4484;48.928;10.066;2023-12-22T11:03:18;9.90;;;2.13;;
8895;SDS011;4484;48.928;10.066;2023-12-22T11:05:50;15.13;;;2.30;;
8895;SDS011;4484;48.928;10.066;2023-12-22T11:08:19;12.80;;;3.27;;
8895;SDS011;4484;48.928;10.066;2023-12-22T11:10:50;12.53;;;2.87;;
8895;SDS011;4484;48.928;10.066;2023-12-22T11:13:23;16.63;;;3.33;;
8895;SDS011;4484;48.928;10.066;2023-12-22T11:15:50;17.23;;;2.73;;
8895;SDS011;4484;48.928;10.066;2023-12-22T11:18:18;17.90;;;3.10;;
8895;SDS011;4484;48.928;10.066;2023-12-22T11:20:46;14.87;;;3.27;;
8895;SDS011;4484;48.928;10.066;2023-12-22T11:23:14;18.70;;;3.23;;
8895;SDS011;4484;48.928;10.066;2023-12-22T11:25:44;8.43;;;2.30;;
8895;SDS011;4484;48.928;10.066;2023-12-22T11:28:13;11.80;;;2.33;;
8895;SDS011;4484;48.928;10.066;2023-12-22T11:30:41;15.77;;;3.43;;
8895;SDS011;4484;48.928;10.066;2023-12-22T11:33:10;11.43;;;2.20;;
8895;SDS011;4484;48.928;10.066;2023-12-22T11:35:37;15.83;;;3.10;;
8895;SDS011;4484;48.928;10.066;2023-12-22T11:38:05;15.50;;;2.60;;
8895;SDS011;4484;48.928;10.066;2023-12-22T11:40:33;12.67;;;2.60;;
8895;SDS011;4484;48.928;10.066;2023-12-22T11:42:59;10.00;;;2.67;;
8895;SDS011;4484;48.928;10.066;2023-12-22T11:45:30;14.23;;;2.20;;
8895;SDS011;4484;48.928;10.066;2023-12-22T11:48:04;8.00;;;1.87;;
8895;SDS011;4484;48.928;10.066;2023-12-22T11:50:32;11.07;;;2.43;;
8895;SDS011;4484;48.928;10.066;2023-12-22T11:55:59;7.23;;;1.67;;
8895;SDS011;4484;48.928;10.066;2023-12-22T11:58:41;11.10;;;2.00;;
8895;SDS011;4484;48.928;10.066;2023-12-22T12:01:10;12.43;;;2.07;;
8895;SDS011;4484;48.928;10.066;2023-12-22T12:03:55;8.20;;;1.80;;
8895;SDS011;4484;48.928;10.066;2023-12-22T12:06:31;9.87;;;2.37;;
8895;SDS011;4484;48.928;10.066;2023-12-22T12:09:01;7.47;;;1.80;;
8895;SDS011;4484;48.928;10.066;2023-12-22T12:14:22;6.87;;;2.23;;
8895;SDS011;4484;48.928;10.066;2023-12-22T12:16:56;9.70;;;2.00;;
8895;SDS011;4484;48.928;10.066;2023-12-22T12:19:30;3.70;;;1.40;;
8895;SDS011;4484;48.928;10.066;2023-12-22T12:21:57;4.93;;;1.50;;
8895;SDS011;4484;48.928;10.066;2023-12-22T12:24:25;8.83;;;2.20;;
8895;SDS011;4484;48.928;10.066;2023-12-22T12:26:51;4.90;;;1.37;;
8895;SDS011;4484;48.928;10.066;2023-12-22T12:29:19;8.57;;;1.30;;
8895;SDS011;4484;48.928;10.066;2023-12-22T12:31:47;8.27;;;1.70;;
8895;SDS011;4484;48.928;10.066;2023-12-22T12:34:14;7.07;;;1.50;;
8895;SDS011;4484;48.928;10.066;2023-12-22T12:36:44;9.07;;;2.13;;
8895;SDS011;4484;48.928;10.066;2023-12-22T12:39:14;11.33;;;2.80;;
8895;SDS011;4484;48.928;10.066;2023-12-22T12:41:42;4.07;;;1.60;;
8895;SDS011;4484;48.928;10.066;2023-12-22T12:44:10;3.87;;;1.30;;
8895;SDS011;4484;48.928;10.066;2023-12-22T12:46:38;5.00;;;1.40;;
8895;SDS011;4484;48.928;10.066;2023-12-22T12:49:09;3.57;;;1.10;;
8895;SDS011;4484;48.928;10.066;2023-12-22T12:51:42;3.20;;;1.13;;
8895;SDS011;4484;48.928;10.066;2023-12-22T12:54:11;6.77;;;1.17;;
8895;SDS011;4484;48.928;10.066;2023-12-22T12:56:42;1.80;;;1.00;;
8895;SDS011;4484;48.928;10.066;2023-12-22T12:59:13;3.67;;;1.60;;
8895;SDS011;4484;48.928;10.066;2023-12-22T13:01:43;3.33;;;0.90;;
8895;SDS011;4484;48.928;10.066;2023-12-22T13:04:12;3.83;;;0.90;;
8895;SDS011;4484;48.928;10.066;2023-12-22T13:06:43;4.73;;;1.10;;
8895;SDS011;4484;48.928;10.066;2023-12-22T13:09:13;2.13;;;0.63;;
8895;SDS011;4484;48.928;10.066;2023-12-22T13:11:42;1.70;;;0.90;;
8895;SDS011;4484;48.928;10.066;2023-12-22T13:14:10;0.70;;;0.40;;
8895;SDS011;4484;48.928;10.066;2023-12-22T13:16:40;1.83;;;0.97;;
8895;SDS011;4484;48.928;10.066;2023-12-22T13:19:07;2.10;;;1.20;;
8895;SDS011;4484;48.928;10.066;2023-12-22T13:21:34;1.97;;;0.80;;
8895;SDS011;4484;48.928;10.066;2023-12-22T13:24:07;0.83;;;0.60;;
8895;SDS011;4484;48.928;10.066;2023-12-22T13:26:34;2.53;;;1.13;;
8895;SDS011;4484;48.928;10.066;2023-12-22T13:29:01;1.07;;;0.60;;
8895;SDS011;4484;48.928;10.066;2023-12-22T13:31:30;0.97;;;0.47;;
8895;SDS011;4484;48.928;10.066;2023-12-22T13:33:58;1.60;;;0.60;;
8895;SDS011;4484;48.928;10.066;2023-12-22T13:36:38;1.37;;;0.80;;
8895;SDS011;4484;48.928;10.066;2023-12-22T13:39:05;3.13;;;0.80;;
8895;SDS011;4484;48.928;10.066;2023-12-22T13:41:33;1.87;;;0.80;;
8895;SDS011;4484;48.928;10.066;2023-12-22T13:44:06;0.67;;;0.60;;
8895;SDS011;4484;48.928;10.066;2023-12-22T13:46:33;0.73;;;0.73;;
8895;SDS011;4484;48.928;10.066;2023-12-22T13:49:02;2.13;;;1.00;;
8895;SDS011;4484;48.928;10.066;2023-12-22T13:51:40;1.83;;;0.60;;
8895;SDS011;4484;48.928;10.066;2023-12-22T13:54:08;2.67;;;0.60;;
8895;SDS011;4484;48.928;10.066;2023-12-22T13:56:36;1.43;;;0.73;;
8895;SDS011;4484;48.928;10.066;2023-12-22T13:59:03;1.57;;;0.90;;
8895;SDS011;4484;48.928;10.066;2023-12-22T14:01:30;1.90;;;1.20;;
8895;SDS011;4484;48.928;10.066;2023-12-22T14:03:59;1.80;;;0.80;;
8895;SDS011;4484;48.928;10.066;2023-12-22T14:06:26;2.57;;;0.60;;
8895;SDS011;4484;48.928;10.066;2023-12-22T14:08:53;2.17;;;0.67;;
8895;SDS011;4484;48.928;10.066;2023-12-22T14:11:20;1.47;;;1.03;;
8895;SDS011;4484;48.928;10.066;2023-12-22T14:13:48;1.00;;;0.40;;
8895;SDS011;4484;48.928;10.066;2023-12-22T14:16:15;4.77;;;0.83;;
8895;SDS011;4484;48.928;10.066;2023-12-22T14:18:42;1.17;;;0.80;;
8895;SDS011;4484;48.928;10.066;2023-12-22T14:21:09;1.47;;;0.70;;
8895;SDS011;4484;48.928;10.066;2023-12-22T14:23:36;2.20;;;0.70;;
8895;SDS011;4484;48.928;10.066;2023-12-22T14:26:03;0.83;;;0.50;;
8895;SDS011;4484;48.928;10.066;2023-12-22T14:28:32;2.63;;;0.47;;
8895;SDS011;4484;48.928;10.066;2023-12-22T14:30:59;0.50;;;0.50;;
8895;SDS011;4484;48.928;10.066;2023-12-22T14:33:26;1.07;;;1.00;;
8895;SDS011;4484;48.928;10.066;2023-12-22T14:35:53;1.93;;;0.60;;
8895;SDS011;4484;48.928;10.066;2023-12-22T14:38:20;1.43;;;0.60;;
8895;SDS011;4484;48.928;10.066;2023-12-22T14:40:47;1.23;;;0.90;;
8895;SDS011;4484;48.928;10.066;2023-12-22T14:43:13;1.13;;;0.90;;
8895;SDS011;4484;48.928;10.066;2023-12-22T14:45:40;2.40;;;0.60;;
8895;SDS011;4484;48.928;10.066;2023-12-22T14:48:07;0.60;;;0.60;;
8895;SDS011;4484;48.928;10.066;2023-12-22T14:50:34;1.20;;;0.77;;
8895;SDS011;4484;48.928;10.066;2023-12-22T14:53:01;1.47;;;0.70;;
8895;SDS011;4484;48.928;10.066;2023-12-22T14:55:29;1.27;;;0.50;;
8895;SDS011;4484;48.928;10.066;2023-12-22T14:57:55;0.40;;;0.40;;
8895;SDS011;4484;48.928;10.066;2023-12-22T15:00:22;2.37;;;0.73;;
8895;SDS011;4484;48.928;10.066;2023-12-22T15:02:49;0.73;;;0.60;;
8895;SDS011;4484;48.928;10.066;2023-12-22T15:05:17;1.80;;;0.70;;
8895;SDS011;4484;48.928;10.066;2023-12-22T15:07:44;0.80;;;0.60;;
8895;SDS011;4484;48.928;10.066;2023-12-22T15:10:11;3.30;;;0.60;;
8895;SDS011;4484;48.928;10.066;2023-12-22T15:12:38;1.90;;;0.70;;
8895;SDS011;4484;48.928;10.066;2023-12-22T15:15:08;0.60;;;0.60;;
8895;SDS011;4484;48.928;10.066;2023-12-22T15:17:36;0.90;;;0.50;;
8895;SDS011;4484;48.928;10.066;2023-12-22T15:20:02;1.03;;;0.60;;
8895;SDS011;4484;48.928;10.066;2023-12-22T15:22:34;2.00;;;0.80;;